Meath Environmental Platform

Observations

Time Sensor AQI SAQ Temp °C Hum % Pres Pa CO μg/m³ H₂S μg/m³ NO μg/m³ NO₂ μg/m³ O₃ μg/m³ SO₂ μg/m³ CO₂e PPM VOC PPM PM1 μg/m³ PM2.5 μg/m³ PM4 μg/m³ PM10 μg/m³ TPS µm
Thursday 13 August 2026
03:30 Trim Market St 2 21.5 72 43,194 0.09 0 1.15 17.15 44.24 0 3.56 5.83 8.75
03:29 Trim Patrick St 2 20.9 76 38,460 0.01 17.79 1.29 22.32 36.38 6.37 6.29 10.42 11.46
03:29 Trim Market St 2 21.5 72 43,420 0.08 0.29 1.16 19.14 46.08 0 4.28 5.35 8.14
03:28 Trim Patrick St 2 20.9 76 38,460 0 15.07 1.3 50.51 18.46 5.02 7.14 10.4 11.44
03:28 Trim Market St 2 21.5 72 43,775 0.08 0.88 1.21 23.31 38.11 0 3.56 4.88 7.53
03:27 Trim Patrick St 2 20.9 77 38,460 0.01 11.41 1.29 24.99 30.4 5.79 8.86 12.51 13.76
03:26 Trim Patrick St 2 20.9 77 38,460 0 9.77 1.29 21.36 34.48 5.76 7.14 10.39 11.42
03:25 Trim Patrick St 2 20.9 77 38,460 0 9.93 1.28 18.31 36.68 6.09 5.43 9.68 10.65
03:25 Trim Market St 2 21.5 72 45,381 0.08 2.83 1.15 22.82 43.17 0 1.43 4.4 6.92
03:24 Trim Patrick St 2 20.9 77 38,460 0.01 14.07 1.24 33.51 26.82 5.66 5.43 8.98 9.88
03:23 Trim Patrick St 2 20.9 77 38,460 0 12.2 1.32 26.71 30.67 6.08 6.29 11.1 12.21
03:22 Trim Patrick St 2 20.9 77 38,460 0.02 8.54 1.32 24.22 29.86 5.26 7.14 10.39 11.43
03:21 Trim Patrick St 2 20.9 76 38,460 0 12.25 1.32 15.33 41.68 6.52 7.14 11.12 12.23
03:20 Trim Patrick St 2 20.8 76 38,460 0.02 11.96 1.27 32.28 28.74 5.14 7.14 11.17 12.29
03:19 Trim Patrick St 2 20.9 76 38,460 0.01 12.89 1.25 17.57 40.9 6.35 6.29 9.76 10.74
03:18 Trim Patrick St 2 20.8 75 38,460 0.02 13.78 1.21 47.81 17.37 4.43 6.29 11.22 12.34
03:18 Trim Market St 2 21.4 72 47,778 0.08 0.01 1.14 18.77 44.34 0 3.56 4.91 8.15
03:17 Trim Patrick St 2 20.8 75 38,460 0.02 8.06 1.22 16.2 38.92 6.02 7.14 11.22 12.35
03:17 Trim Market St 2 21.4 72 48,080 0.08 1.51 1.12 21.93 44.97 0 4.28 5.88 10.62
03:16 Trim Patrick St 2 20.8 75 38,460 0.01 7.72 1.21 21.96 34.19 5.45 8 11.93 13.13